Flight Track Log - Related Links

Times and Time Zones

All times are in EDT time to prevent confusion due to time zone crossing. See the JBU348 flight status page for this flight to view local times or setup timezone preferences in your user account.

Time Position Orientation Groundspeed Altitude Reporting Facility
EDT Latitude Longitude Course Direction KTS MPH feet Rate Location/Type
Fri 07:47:22 PM 27.4167 -82.5667 North 169 194 900  Level Tampa TRACON
Fri 07:48:23 PM 27.4000 -82.6333 254° West 205 236 2,200 1,835 Climbing Tampa TRACON
Fri 07:49:23 PM 27.4000 -82.7000 270° West 246 283 4,600 2,600 Climbing Tampa TRACON
Fri 07:50:00 PM 27.6745 -82.7833 North  Level FlightAware Approximate
Fri 07:50:23 PM 27.4500 -82.7667 310° West 280 322 7,400  Level Tampa TRACON
Fri 07:51:00 PM 27.7867 -82.7833 360° North  Level FlightAware Approximate
Fri 07:52:00 PM 27.8988 -82.7833 North  Level FlightAware Approximate
Fri 07:52:27 PM 27.6067 -82.7894 353° North 282 325 12,000  Level Miami Center
Fri 07:54:04 PM 27.7661 -82.7894 360° North 340 391 15,700 2,140 Climbing Jacksonville Center
Fri 07:55:04 PM 27.8808 -82.7892 360° North 352 405 17,600 1,700 Climbing Jacksonville Center
Fri 07:56:04 PM 27.9914 -82.7892 360° North 380 437 19,100 1,200 Climbing Jacksonville Center
Fri 07:57:04 PM 28.1081 -82.7892 360° North 399 459 20,000 450 Climbing Jacksonville Center
Fri 07:58:04 PM 28.2231 -82.7889 360° North 404 465 20,000 500 Level Jacksonville Center
Fri 07:59:04 PM 28.3336 -82.7864 North 399 459 21,000 1,250 Climbing Jacksonville Center
Fri 08:00:04 PM 28.4503 -82.7839 North 405 466 22,500 1,500 Climbing Jacksonville Center
Fri 08:01:04 PM 28.5672 -82.7719 North 411 473 24,000 1,600 Climbing Jacksonville Center
Fri 08:02:04 PM 28.6903 -82.7578 North 422 486 25,700 1,400 Climbing Jacksonville Center
Fri 08:03:04 PM 28.7967 -82.7506 North 429 494 26,800 1,150 Climbing Jacksonville Center
Fri 08:04:04 PM 28.9200 -82.7383 North 429 494 28,000 1,200 Climbing Jacksonville Center
Fri 08:05:04 PM 29.0431 -82.7286 North 435 501 29,200 1,150 Climbing Jacksonville Center
Fri 08:06:04 PM 29.1683 -82.7167 North 440 506 30,300 1,100 Climbing Jacksonville Center
Fri 08:07:04 PM 29.2914 -82.7044 North 440 506 31,400 1,000 Climbing Jacksonville Center
Fri 08:08:04 PM 29.4167 -82.6947 North 440 506 32,300 1,200 Climbing Jacksonville Center
Fri 08:09:04 PM 29.5522 -82.6944 360° North 442 509 33,800 850 Climbing Jacksonville Center
Fri 08:10:04 PM 29.6733 -82.6942 360° North 427 491 34,000 100 Climbing Jacksonville Center
Fri 08:11:04 PM 29.7903 -82.6533 17° North 427 491 34,000  Level Jacksonville Center
Fri 08:12:04 PM 29.8944 -82.6028 23° Northeast 445 512 34,000 400 Level Jacksonville Center
Fri 08:13:04 PM 30.0133 -82.5639 16° North 445 512 34,800 750 Climbing Jacksonville Center
Fri 08:14:04 PM 30.1450 -82.5300 13° North 440 506 35,500 650 Climbing Jacksonville Center
Fri 08:15:04 PM 30.2658 -82.4933 15° North 435 501 36,100 550 Climbing Jacksonville Center
Fri 08:16:04 PM 30.3806 -82.4400 22° Northeast 435 501 36,600 450 Climbing Jacksonville Center
Fri 08:17:04 PM 30.4931 -82.3792 25° Northeast 447 514 37,000 200 Climbing Jacksonville Center
Fri 08:18:04 PM 30.6097 -82.3156 25° Northeast 452 520 37,000  Level Jacksonville Center
Fri 08:19:04 PM 30.7097 -82.2594 26° Northeast 452 520 37,000  Level Jacksonville Center
Fri 08:20:04 PM 30.8242 -82.1958 26° Northeast 447 514 37,000  Level Jacksonville Center
Fri 08:21:04 PM 30.9367 -82.1344 25° Northeast 442 509 37,000  Level Jacksonville Center
Fri 08:22:04 PM 31.0489 -82.0656 28° Northeast 442 509 37,000  Level Jacksonville Center
Fri 08:23:04 PM 31.1483 -81.9678 40° Northeast 450 518 37,000  Level Jacksonville Center
Fri 08:24:04 PM 31.2458 -81.8672 41° Northeast 456 525 37,000  Level Jacksonville Center
Fri 08:25:04 PM 31.3453 -81.7686 40° Northeast 463 533 37,000  Level Jacksonville Center
Fri 08:26:04 PM 31.4383 -81.6653 43° Northeast 463 533 37,000  Level Jacksonville Center
Fri 08:27:04 PM 31.5456 -81.5592 40° Northeast 463 533 37,000  Level Jacksonville Center
Fri 08:28:04 PM 31.6344 -81.4675 41° Northeast 463 533 37,000  Level Jacksonville Center
Fri 08:29:04 PM 31.7417 -81.3583 41° Northeast 463 533 37,000  Level Jacksonville Center
Fri 08:30:04 PM 31.8386 -81.2589 41° Northeast 463 533 37,000  Level Jacksonville Center
Fri 08:31:04 PM 31.9272 -81.1694 41° Northeast 463 533 37,000  Level Jacksonville Center
Fri 08:32:04 PM 32.0300 -81.0569 43° Northeast 457 526 37,000  Level Jacksonville Center
Fri 08:33:04 PM 32.1206 -80.9694 39° Northeast 457 526 37,000  Level Jacksonville Center
Fri 08:34:04 PM 32.2253 -80.8617 41° Northeast 457 526 37,000  Level Jacksonville Center
Fri 08:35:04 PM 32.3178 -80.7661 41° Northeast 451 519 37,000  Level Jacksonville Center
Fri 08:36:04 PM 32.4017 -80.6731 43° Northeast 451 519 37,000  Level Jacksonville Center
Fri 08:37:04 PM 32.4939 -80.5772 41° Northeast 451 519 37,000  Level Jacksonville Center
Fri 08:38:04 PM 32.5881 -80.4764 42° Northeast 451 519 37,000  Level Jacksonville Center
Fri 08:39:04 PM 32.6822 -80.3775 41° Northeast 451 519 37,000  Level Jacksonville Center
Fri 08:40:04 PM 32.7742 -80.2811 41° Northeast 451 519 37,000  Level Jacksonville Center
Fri 08:41:04 PM 32.8661 -80.1794 43° Northeast 451 519 37,000  Level Jacksonville Center
Fri 08:42:04 PM 32.9681 -80.0675 43° Northeast 451 519 37,000  Level Jacksonville Center
Fri 08:43:04 PM 33.0597 -79.9706 42° Northeast 451 519 37,000  Level Jacksonville Center
Fri 08:44:04 PM 33.1514 -79.8781 40° Northeast 441 507 37,000  Level Jacksonville Center
Fri 08:45:04 PM 33.2428 -79.7783 42° Northeast 441 507 37,000  Level Jacksonville Center
Fri 08:46:04 PM 33.3322 -79.6831 42° Northeast 436 502 37,000  Level Jacksonville Center
Fri 08:47:04 PM 33.4258 -79.5828 42° Northeast 436 502 37,000  Level Jacksonville Center
Fri 08:48:04 PM 33.5150 -79.4847 43° Northeast 436 502 37,000  Level Jacksonville Center
Fri 08:49:04 PM 33.6042 -79.3864 43° Northeast 436 502 37,000  Level Jacksonville Center
Fri 08:50:04 PM 33.6931 -79.2856 43° Northeast 436 502 37,000  Level Jacksonville Center
Fri 08:51:04 PM 33.7700 -79.2025 42° Northeast 424 488 37,000  Level Jacksonville Center
Fri 08:52:04 PM 33.8631 -79.1061 41° Northeast 424 488 37,000  Level Jacksonville Center
Fri 08:54:30 PM 34.0853 -78.8717 41° Northeast 435 501 37,000  Level Washington Center
Fri 08:55:29 PM 34.1772 -78.7800 40° Northeast 440 506 37,000  Level Washington Center
Fri 08:56:30 PM 34.2717 -78.6856 40° Northeast 450 518 37,000  Level Washington Center
Fri 08:57:30 PM 34.3681 -78.5911 39° Northeast 455 524 37,000  Level Washington Center
Fri 08:58:31 PM 34.4619 -78.4989 39° Northeast 455 524 37,000  Level Washington Center
Fri 08:59:29 PM 34.5456 -78.4083 42° Northeast 442 509 37,000  Level Washington Center
Fri 09:00:30 PM 34.6236 -78.2772 54° Northeast 436 502 37,000  Level Washington Center
Fri 09:01:31 PM 34.6294 -78.1058 88° East 453 521 37,000  Level Washington Center
Fri 09:02:31 PM 34.6353 -77.9219 88° East 468 539 37,000  Level Washington Center
Fri 09:03:31 PM 34.6344 -77.7503 90° East 491 565 37,000  Level Washington Center
Fri 09:04:30 PM 34.6353 -77.5836 90° East 496 571 37,000  Level Washington Center
Fri 09:05:31 PM 34.6336 -77.4144 91° East 496 571 37,000  Level Washington Center
Fri 09:06:29 PM 34.6878 -77.2742 65° Northeast 471 542 37,000  Level Washington Center
Fri 09:07:31 PM 34.7847 -77.2031 31° Northeast 388 447 37,000  Level Washington Center
Fri 09:08:31 PM 34.8731 -77.1567 23° Northeast 375 432 37,000  Level Washington Center
Fri 09:09:31 PM 34.9886 -77.1056 20° North 375 432 37,000  Level Washington Center
Fri 09:10:29 PM 35.0892 -77.0542 23° Northeast 389 448 37,000  Level Washington Center
Fri 09:11:30 PM 35.1775 -77.0050 24° Northeast 389 448 37,000  Level Washington Center
Fri 09:12:31 PM 35.2783 -76.9533 23° Northeast 389 448 37,000  Level Washington Center
Fri 09:13:29 PM 35.3747 -76.9039 23° Northeast 389 448 37,000  Level Washington Center
Fri 09:14:30 PM 35.4775 -76.8519 22° Northeast 389 448 37,000  Level Washington Center
Fri 09:15:29 PM 35.5783 -76.7975 24° Northeast 389 448 37,000  Level Washington Center
Fri 09:16:30 PM 35.6789 -76.7428 24° Northeast 389 448 37,000  Level Washington Center
Fri 09:17:31 PM 35.7817 -76.6903 23° Northeast 389 448 37,000  Level Washington Center
Fri 09:18:29 PM 35.8844 -76.6381 22° Northeast 394 453 37,000  Level Washington Center
Fri 09:19:29 PM 35.9850 -76.5856 23° Northeast 394 453 37,000  Level Washington Center
Fri 09:20:30 PM 36.0856 -76.5328 23° Northeast 394 453 37,000  Level Washington Center
Fri 09:21:31 PM 36.1883 -76.4772 24° Northeast 394 453 37,000  Level Washington Center
Fri 09:22:29 PM 36.2908 -76.4244 23° Northeast 394 453 37,000  Level Washington Center
Fri 09:23:31 PM 36.3933 -76.3711 23° Northeast 394 453 37,000  Level Washington Center
Fri 09:24:31 PM 36.4961 -76.3181 23° Northeast 394 453 37,000  Level Washington Center
Fri 09:25:30 PM 36.5964 -76.2644 23° Northeast 394 453 37,000  Level Washington Center
Fri 09:26:31 PM 36.7072 -76.2058 23° Northeast 394 453 37,000  Level Washington Center
Fri 09:27:31 PM 36.8139 -76.1444 25° Northeast 399 459 37,000  Level Washington Center
Fri 09:28:30 PM 36.9144 -76.0906 23° Northeast 394 453 37,000  Level Washington Center
Fri 09:29:30 PM 37.0231 -76.0367 22° Northeast 402 463 37,000  Level Washington Center
Fri 09:30:30 PM 37.1256 -75.9800 24° Northeast 407 468 37,000  Level Washington Center
Fri 09:31:31 PM 37.2300 -75.9231 23° Northeast 407 468 37,000  Level Washington Center
Fri 09:32:29 PM 37.3322 -75.8661 24° Northeast 407 468 37,000  Level Washington Center
Fri 09:33:29 PM 37.4367 -75.8117 22° Northeast 402 463 37,000  Level Washington Center
Fri 09:34:30 PM 37.5411 -75.7517 24° Northeast 402 463 37,000  Level Washington Center
Fri 09:35:29 PM 37.6475 -75.6942 23° Northeast 397 457 37,000  Level Washington Center
Fri 09:36:29 PM 37.7539 -75.6364 23° Northeast 397 457 37,000  Level Washington Center
Fri 09:37:30 PM 37.8583 -75.5786 24° Northeast 397 457 37,000  Level Washington Center
Fri 09:38:31 PM 37.9625 -75.5233 23° Northeast 397 457 37,000  Level Washington Center
Fri 09:39:30 PM 38.0667 -75.4653 24° Northeast 402 463 37,000 -50 Level Washington Center
Fri 09:40:31 PM 38.1689 -75.3989 27° Northeast 402 463 36,900 -504 Descending Washington Center
Fri 09:41:29 PM 38.2728 -75.3300 27° Northeast 402 463 36,000 -966 Descending Washington Center
Fri 09:42:29 PM 38.3750 -75.2581 29° Northeast 407 468 35,000 -492 Descending Washington Center
Fri 09:43:31 PM 38.4853 -75.1964 24° Northeast 407 468 35,000  Level Washington Center
Fri 09:44:31 PM 38.5892 -75.1347 25° Northeast 413 475 35,000  Level Washington Center
Fri 09:45:29 PM 38.6931 -75.0597 29° Northeast 413 475 35,000  Level Washington Center
Fri 09:46:29 PM 38.8011 -74.9922 26° Northeast 418 481 35,000 -397 Level Washington Center
Fri 09:47:30 PM 38.9092 -74.9247 26° Northeast 423 487 34,200 -1,537 Descending Washington Center
Fri 09:48:30 PM 39.0131 -74.8569 27° Northeast 423 487 31,900 -2,281 Descending Washington Center
Fri 09:49:31 PM 39.1189 -74.7756 31° Northeast 423 487 29,600 -2,393 Descending Washington Center
Fri 09:51:28 PM 39.3144 -74.5678 39° Northeast 450 518 24,800 -2,441 Descending New York Center
Fri 09:52:28 PM 39.4053 -74.4653 41° Northeast 450 518 22,400 -2,300 Descending New York Center
Fri 09:53:28 PM 39.4961 -74.3650 40° Northeast 439 505 20,200 -2,182 Descending New York Center
Fri 09:54:29 PM 39.5864 -74.2700 39° Northeast 419 482 18,000 -1,686 Descending New York Center
Fri 09:55:29 PM 39.6683 -74.1797 40° Northeast 404 465 16,800 -1,513 Descending New York Center
Fri 09:56:28 PM 39.7522 -74.0892 40° Northeast 391 450 15,000 -1,785 Descending New York Center
Fri 09:57:30 PM 39.8211 -74.0114 41° Northeast 373 429 13,200 -1,750 Descending New York Center
Fri 09:58:28 PM 39.9064 -73.9450 31° Northeast 360 414 11,500 -1,100 Descending New York Center
Fri 09:59:30 PM 39.9933 -73.8814 29° Northeast 332 382 11,000 -250 Descending New York Center
Fri 10:00:28 PM 40.0614 -73.8303 30° Northeast 302 348 11,000 -203 Level New York Center
Fri 10:01:28 PM 40.1297 -73.7733 32° Northeast 289 333 10,600 -706 Descending New York Center
Fri 10:01:53 PM 40.1500 -73.7500 41° Northeast 290 334 10,000 -1,271 Descending New York TRACON
Fri 10:02:53 PM 40.2333 -73.7000 25° Northeast 278 320 8,800 -1,350 Descending New York TRACON
Fri 10:03:53 PM 40.3000 -73.6500 30° Northeast 267 307 7,300 -1,650 Descending New York TRACON
Fri 10:04:53 PM 40.3667 -73.6167 21° North 261 300 5,500 -1,705 Descending New York TRACON
Fri 10:05:28 PM 40.3947 -73.5889 37° Northeast 264 304 4,600 -1,100 Descending New York Center
Fri 10:05:53 PM 40.4333 -73.5667 24° Northeast 252 290 4,400 -706 Descending New York TRACON
Fri 10:06:53 PM 40.4833 -73.5667 360° North 214 246 3,600 -950 Descending New York TRACON
Fri 10:07:53 PM 40.5500 -73.5833 349° North 217 250 2,500 -800 Descending New York TRACON
Fri 10:08:53 PM 40.5833 -73.6333 311° West 197 227 2,000 -600 Descending New York TRACON
Fri 10:09:53 PM 40.6167 -73.6833 311° West 160 184 1,300 -700 Descending New York TRACON
Fri 10:10:53 PM 40.6333 -73.7333 294° West 129 148 600 -700 Descending New York TRACON
Fri 10:12:00 PM 40.6333 -73.7667 309° West  Level FlightAware Approximate
Fri 10:19:00 PM 40.6398 -73.7789 309° West  Level Estimated
Fri 10:20:00 PM 40.6398 -73.7789 309° West  Level Estimated

Login

Don't have an account? Register now (free) for customized features, flight alerts, and more!